Time;durP1;ratioP1;P1;durP2;ratioP2;P2;SDS_P1;SDS_P2;PMS_P1;PMS_P2;Temp;Humidity;BMP_temperature;BMP_pressure;BME280_temperature;BME280_humidity;BME280_pressure;Samples;Min_cycle;Max_cycle;Signal;HPM_P1;HPM_P2
2023/10/10 00:00:49;;;;;;;9.13;5.22;;;;;;;14.72;100.00;102115.72;6218487;23;20009;-79
2023/10/10 00:03:18;;;;;;;6.10;5.38;;;;;;;14.70;100.00;102115.41;6219265;23;20021;-80
2023/10/10 00:05:45;;;;;;;7.55;5.53;;;;;;;14.68;100.00;102119.25;6219579;23;20018;-79
2023/10/10 00:08:11;;;;;;;7.15;5.88;;;;;;;14.67;100.00;102120.44;6219161;23;20083;-79
2023/10/10 00:10:50;;;;;;;7.57;5.88;;;;;;;14.66;100.00;102120.88;6192322;23;20024;-79
2023/10/10 00:13:19;;;;;;;7.78;5.57;;;;;;;14.63;100.00;102129.78;6192070;23;20459;-79
2023/10/10 00:15:50;;;;;;;8.20;5.43;;;;;;;14.62;100.00;102130.97;6219521;23;20027;-79
2023/10/10 00:18:18;;;;;;;7.38;5.25;;;;;;;14.62;100.00;102114.88;6218951;23;20025;-79
2023/10/10 00:23:38;;;;;;;8.93;5.65;;;;;;;14.54;100.00;102125.09;6219019;23;20391;-79
2023/10/10 00:26:05;;;;;;;7.05;5.20;;;;;;;14.51;100.00;102123.28;6167728;23;20024;-79
2023/10/10 00:28:34;;;;;;;8.20;5.25;;;;;;;14.51;100.00;102130.56;6218383;23;20462;-79
2023/10/10 00:31:05;;;;;;;5.85;4.40;;;;;;;14.47;100.00;102127.25;6192790;23;20017;-79
2023/10/10 00:33:31;;;;;;;7.05;5.18;;;;;;;14.46;100.00;102120.38;6219426;23;20037;-79
2023/10/10 00:35:59;;;;;;;7.85;4.28;;;;;;;14.43;100.00;102115.91;6219197;23;20068;-79
2023/10/10 00:38:29;;;;;;;4.95;4.45;;;;;;;14.42;100.00;102111.72;6218506;23;20026;-79
2023/10/10 00:40:57;;;;;;;5.75;4.82;;;;;;;14.39;100.00;102110.66;6219383;23;20021;-79
2023/10/10 00:43:24;;;;;;;5.00;4.47;;;;;;;14.37;100.00;102101.53;6217804;23;20013;-79
2023/10/10 00:45:57;;;;;;;6.00;4.85;;;;;;;14.33;100.00;102098.97;6219339;23;20045;-79
2023/10/10 00:48:29;;;;;;;5.53;5.00;;;;;;;14.30;100.00;102097.16;6217258;23;20396;-79
2023/10/10 00:51:05;;;;;;;6.68;4.60;;;;;;;14.27;100.00;102088.06;6193157;23;20422;-79
2023/10/10 00:53:36;;;;;;;5.75;4.85;;;;;;;14.25;100.00;102090.41;6218873;23;20470;-79
2023/10/10 00:56:05;;;;;;;9.80;5.57;;;;;;;14.24;100.00;102091.59;6192313;23;20095;-79
2023/10/10 00:58:37;;;;;;;9.73;5.95;;;;;;;14.22;100.00;102088.59;6191232;23;20044;-79
2023/10/10 01:01:10;;;;;;;6.63;5.85;;;;;;;14.21;100.00;102087.09;6167526;23;20071;-79
2023/10/10 01:03:41;;;;;;;7.28;6.57;;;;;;;14.20;100.00;102099.00;6192335;23;20444;-79
2023/10/10 01:06:25;;;;;;;6.50;5.55;;;;;;;14.19;100.00;102094.81;6192411;23;20029;-80
2023/10/10 01:09:16;;;;;;;6.43;5.85;;;;;;;14.21;100.00;102099.75;6192207;23;20075;-80
2023/10/10 01:11:43;;;;;;;7.03;6.32;;;;;;;14.21;100.00;102091.72;6217931;23;20013;-79
2023/10/10 01:14:16;;;;;;;6.70;5.95;;;;;;;14.20;100.00;102088.28;6218479;23;20013;-80
2023/10/10 01:16:47;;;;;;;6.65;6.05;;;;;;;14.20;100.00;102088.28;6218847;23;20452;-79
2023/10/10 01:19:17;;;;;;;6.75;5.88;;;;;;;14.17;100.00;102078.44;6218848;23;20021;-80
2023/10/10 01:21:50;;;;;;;6.57;5.93;;;;;;;14.16;100.00;102076.19;6219298;23;20473;-80
2023/10/10 01:24:18;;;;;;;9.23;6.65;;;;;;;14.15;100.00;102072.00;6192036;23;20024;-80
2023/10/10 01:26:45;;;;;;;7.25;6.55;;;;;;;14.13;100.00;102077.78;6191930;23;20052;-80
2023/10/10 01:29:25;;;;;;;8.02;7.15;;;;;;;14.11;100.00;102064.09;6218631;23;20041;-79
2023/10/10 01:31:53;;;;;;;11.85;8.30;;;;;;;14.09;100.00;102061.09;6219277;23;20131;-80
2023/10/10 01:34:30;;;;;;;12.43;8.43;;;;;;;14.08;100.00;102048.13;6218244;23;20097;-80
2023/10/10 01:37:07;;;;;;;9.38;8.13;;;;;;;14.05;100.00;102057.03;6192828;23;20494;-79
2023/10/10 01:39:54;;;;;;;13.88;8.02;;;;;;;14.01;100.00;102051.78;6191918;23;20079;-79
2023/10/10 01:42:31;;;;;;;11.05;7.78;;;;;;;13.98;100.00;102052.66;6216132;23;20017;-79
2023/10/10 01:45:03;;;;;;;12.77;7.45;;;;;;;13.95;100.00;102056.22;6191662;23;20013;-80
2023/10/10 01:47:34;;;;;;;13.70;8.40;;;;;;;13.92;100.00;102055.13;6191536;23;20028;-80
2023/10/10 01:50:10;;;;;;;10.20;7.30;;;;;;;13.91;100.00;102050.22;6219126;23;20048;-80
2023/10/10 01:52:38;;;;;;;9.10;7.70;;;;;;;13.87;100.00;102044.97;6192207;23;20477;-80
2023/10/10 01:55:05;;;;;;;10.27;7.20;;;;;;;13.86;100.00;102045.41;6192036;23;20016;-80
2023/10/10 01:57:32;;;;;;;10.52;7.60;;;;;;;13.85;100.00;102038.53;6218514;23;20473;-80
2023/10/10 02:00:06;;;;;;;8.65;7.60;;;;;;;13.82;100.00;102040.16;6192046;23;20144;-79
2023/10/10 02:02:37;;;;;;;8.57;7.32;;;;;;;13.76;100.00;102039.19;6218571;23;20404;-79
2023/10/10 02:05:04;;;;;;;11.82;7.38;;;;;;;13.71;100.00;102039.72;6191622;23;20370;-80
2023/10/10 02:07:31;;;;;;;8.70;7.80;;;;;;;13.72;100.00;102035.13;6166734;23;20029;-80
2023/10/10 02:12:44;;;;;;;8.88;7.95;;;;;;;13.69;100.00;102040.16;6218700;23;20023;-79
2023/10/10 02:15:13;;;;;;;15.93;8.00;;;;;;;13.65;100.00;102036.84;6191309;23;20080;-79
2023/10/10 02:17:51;;;;;;;10.15;7.68;;;;;;;13.64;100.00;102038.00;6190650;23;20021;-79
2023/10/10 02:20:33;;;;;;;10.65;8.40;;;;;;;13.63;100.00;102035.78;6218666;23;20470;-80
2023/10/10 02:23:10;;;;;;;12.25;8.60;;;;;;;13.60;100.00;102029.34;6219128;23;20048;-80
2023/10/10 02:25:40;;;;;;;22.17;9.73;;;;;;;13.60;100.00;102031.28;6217238;23;20072;-80
2023/10/10 02:28:19;;;;;;;21.52;10.88;;;;;;;13.56;100.00;102020.69;6167844;23;20022;-80
2023/10/10 02:30:51;;;;;;;12.00;9.80;;;;;;;13.56;100.00;102026.06;6193160;23;20017;-79
2023/10/10 02:35:56;;;;;;;15.38;10.70;;;;;;;13.50;100.00;102022.41;6192783;23;20017;-79
2023/10/10 02:38:39;;;;;;;14.18;10.23;;;;;;;13.48;100.00;102027.44;6192412;23;20440;-79
2023/10/10 02:44:09;;;;;;;14.07;10.38;;;;;;;13.45;100.00;102019.53;6220322;23;20017;-79
2023/10/10 02:46:39;;;;;;;13.38;10.40;;;;;;;13.43;100.00;102017.28;6219510;23;20080;-79
2023/10/10 02:49:12;;;;;;;18.92;10.00;;;;;;;13.40;100.00;102014.69;6192354;23;20422;-79
2023/10/10 02:51:42;;;;;;;13.00;9.75;;;;;;;13.35;100.00;102014.06;6193132;23;20403;-79
2023/10/10 02:59:59;;;;;;;14.48;9.35;;;;;;;13.30;100.00;102008.50;6192747;23;20080;-79
2023/10/10 03:02:30;;;;;;;12.13;9.52;;;;;;;13.28;100.00;102003.56;6167486;23;20021;-80
2023/10/10 03:07:28;;;;;;;9.95;8.88;;;;;;;13.24;100.00;102010.19;6218429;23;20714;-80
2023/10/10 03:12:37;;;;;;;17.20;10.10;;;;;;;13.21;100.00;102005.69;6219777;23;20018;-80
2023/10/10 03:15:21;;;;;;;11.77;10.55;;;;;;;13.20;100.00;102001.53;6192802;23;20025;-79
2023/10/10 03:18:15;;;;;;;10.40;9.25;;;;;;;13.18;100.00;102001.22;6192826;23;20017;-79
2023/10/10 03:25:52;;;;;;;12.40;9.23;;;;;;;13.15;100.00;102002.03;6192597;23;20102;-79
2023/10/10 05:25:45;;;;;;;37.10;24.65;;;;;;;13.78;100.00;101899.59;6217706;23;20447;-79
2023/10/10 05:28:11;;;;;;;39.55;26.10;;;;;;;13.78;100.00;101903.03;6218926;23;20134;-79
2023/10/10 05:30:42;;;;;;;37.53;25.08;;;;;;;13.78;100.00;101905.69;6219039;23;20052;-79
2023/10/10 05:33:10;;;;;;;42.38;27.30;;;;;;;13.78;100.00;101905.69;6166772;23;20040;-79
2023/10/10 05:35:38;;;;;;;40.80;25.73;;;;;;;13.78;100.00;101905.69;6192437;23;20418;-79
2023/10/10 05:38:08;;;;;;;37.95;25.33;;;;;;;13.79;100.00;101903.78;6192210;23;20013;-79
2023/10/10 05:40:38;;;;;;;47.25;25.33;;;;;;;13.77;100.00;101903.47;6191936;23;20021;-79
2023/10/10 05:43:15;;;;;;;40.85;26.35;;;;;;;13.77;100.00;101903.47;6192586;23;20021;-79
2023/10/10 05:45:43;;;;;;;46.55;25.90;;;;;;;13.76;100.00;101904.63;6218336;23;20017;-79
2023/10/10 05:48:11;;;;;;;42.08;26.85;;;;;;;13.76;100.00;101904.63;6218071;23;20017;-79
2023/10/10 05:50:42;;;;;;;43.63;27.50;;;;;;;13.76;100.00;101893.94;6191835;23;20032;-79
2023/10/10 05:53:09;;;;;;;48.65;27.55;;;;;;;13.73;100.00;101892.13;6218814;23;20025;-79
2023/10/10 05:55:37;;;;;;;41.05;27.52;;;;;;;13.69;100.00;101886.88;6218583;23;20068;-80
2023/10/10 05:58:05;;;;;;;43.20;26.55;;;;;;;13.67;100.00;101889.25;6217874;22;20084;-78
2023/10/10 06:00:41;;;;;;;46.08;29.42;;;;;;;13.66;100.00;101887.75;6166554;23;20108;-77
2023/10/10 06:03:10;;;;;;;47.38;28.67;;;;;;;13.64;100.00;101893.53;6217975;23;20084;-79
2023/10/10 06:05:44;;;;;;;48.78;28.65;;;;;;;13.64;100.00;101890.09;6167129;23;20514;-79
2023/10/10 06:08:12;;;;;;;44.97;28.92;;;;;;;13.62;100.00;101881.75;6192047;23;20013;-79
2023/10/10 06:10:39;;;;;;;46.28;29.60;;;;;;;13.62;100.00;101887.84;6186236;23;20261;-79
2023/10/10 06:13:06;;;;;;;46.42;30.30;;;;;;;13.63;100.00;101885.94;6187025;23;20526;-79
2023/10/10 06:15:34;;;;;;;45.78;29.95;;;;;;;13.63;100.00;101889.34;6161670;23;20068;-79
2023/10/10 06:18:11;;;;;;;51.78;30.40;;;;;;;13.63;100.00;101886.69;6186776;23;20082;-79
2023/10/10 06:20:43;;;;;;;47.30;30.00;;;;;;;13.65;100.00;101891.59;6188382;23;20390;-79
2023/10/10 06:23:14;;;;;;;50.17;30.55;;;;;;;13.64;100.00;101882.06;6187906;23;20426;-80
2023/10/10 06:25:42;;;;;;;48.17;29.83;;;;;;;13.66;100.00;101885.81;6161654;23;20017;-79
2023/10/10 06:28:25;;;;;;;48.80;29.25;;;;;;;13.68;100.00;101883.47;6187993;23;20064;-82
2023/10/10 06:30:53;;;;;;;46.50;30.20;;;;;;;13.71;100.00;101886.44;6188278;23;20025;-82
2023/10/10 06:33:27;;;;;;;51.65;30.55;;;;;;;13.72;100.00;101885.28;6186259;23;20014;-82
2023/10/10 06:38:59;;;;;;;44.08;29.75;;;;;;;13.74;100.00;101875.63;6186833;23;20018;-78
2023/10/10 06:41:27;;;;;;;49.35;30.75;;;;;;;13.76;100.00;101888.56;6186040;23;20223;-78
2023/10/10 06:43:54;;;;;;;50.65;30.88;;;;;;;13.78;100.00;101876.25;6161850;23;20022;-80
2023/10/10 06:46:23;;;;;;;48.15;30.58;;;;;;;13.82;100.00;101878.81;6185122;23;20340;-79
2023/10/10 06:48:50;;;;;;;50.45;31.38;;;;;;;13.85;100.00;101883.31;6188592;23;20021;-79
2023/10/10 06:51:22;;;;;;;49.28;31.63;;;;;;;13.89;100.00;101889.28;6188068;23;20503;-82
2023/10/10 06:53:54;;;;;;;45.40;31.63;;;;;;;13.93;100.00;101895.28;6188556;23;20013;-79
2023/10/10 06:56:43;;;;;;;48.40;31.65;;;;;;;13.97;100.00;101899.34;6185927;23;20072;-83
2023/10/10 06:59:16;;;;;;;54.33;30.98;;;;;;;14.01;100.00;101904.53;6185649;23;20057;-81
2023/10/10 07:01:45;;;;;;;48.78;30.77;;;;;;;14.04;100.00;101895.63;6187179;23;20018;-82
2023/10/10 07:04:13;;;;;;;45.42;29.92;;;;;;;14.07;100.00;101899.38;6186186;23;20052;-82
2023/10/10 07:06:51;;;;;;;45.78;31.45;;;;;;;14.09;100.00;101887.06;6186516;23;20020;-82
2023/10/10 07:09:27;;;;;;;56.30;31.45;;;;;;;14.13;100.00;101898.38;6193347;23;20118;-80
2023/10/10 07:11:55;;;;;;;47.92;31.92;;;;;;;14.20;100.00;101897.41;6192949;23;20032;-79
2023/10/10 07:14:25;;;;;;;50.85;31.83;;;;;;;14.24;100.00;101898.03;6191760;23;20017;-79
2023/10/10 07:16:56;;;;;;;47.45;29.67;;;;;;;14.25;100.00;101905.63;6168228;23;20083;-80
2023/10/10 07:19:30;;;;;;;48.35;30.67;;;;;;;14.29;100.00;101895.53;6192613;23;20021;-80
2023/10/10 07:21:59;;;;;;;48.30;29.83;;;;;;;14.34;100.00;101899.59;6220529;23;20080;-81
2023/10/10 07:24:40;;;;;;;44.28;31.15;;;;;;;14.34;100.00;101902.25;6192384;23;20207;-81
2023/10/10 07:27:13;;;;;;;50.42;30.70;;;;;;;14.39;100.00;101900.94;6219669;23;20040;-81
2023/10/10 07:32:16;;;;;;;49.58;30.83;;;;;;;14.39;100.00;101898.28;6219624;23;20156;-80
2023/10/10 07:34:49;;;;;;;45.00;29.40;;;;;;;14.42;100.00;101889.38;6192928;23;20017;-80
2023/10/10 07:37:17;;;;;;;48.58;30.35;;;;;;;14.48;100.00;101887.63;6219428;23;20471;-79
2023/10/10 07:40:06;;;;;;;45.42;31.42;;;;;;;14.52;100.00;101885.56;6219387;23;20021;-79
2023/10/10 07:42:34;;;;;;;53.45;30.75;;;;;;;14.56;100.00;101878.88;6219357;23;20444;-80
2023/10/10 07:45:13;;;;;;;46.47;30.75;;;;;;;14.63;100.00;101880.56;6218815;23;20017;-77
2023/10/10 07:50:34;;;;;;;47.15;30.35;;;;;;;14.77;100.00;101880.03;6125949;23;20018;-80
2023/10/10 07:53:05;;;;;;;46.75;30.58;;;;;;;14.87;100.00;101886.16;6101897;23;20022;-89
2023/10/10 07:55:50;;;;;;;47.13;30.83;;;;;;;14.94;100.00;101881.28;6127369;23;20025;-81
2023/10/10 07:58:19;;;;;;;42.85;28.75;;;;;;;15.02;100.00;101876.38;6102892;23;20469;-85
2023/10/10 08:00:46;;;;;;;40.78;28.92;;;;;;;15.09;100.00;101880.72;6127279;23;20081;-84
2023/10/10 08:03:19;;;;;;;43.30;29.52;;;;;;;15.12;100.00;101879.84;6102521;23;20178;-84
2023/10/10 08:05:50;;;;;;;46.00;28.75;;;;;;;15.18;100.00;101880.75;6102529;23;20098;-81
2023/10/10 08:08:17;;;;;;;46.17;30.38;;;;;;;15.22;100.00;101876.72;6126231;23;20018;-83
2023/10/10 08:10:49;;;;;;;40.20;28.48;;;;;;;15.24;100.00;101882.41;6129364;23;20014;-82
2023/10/10 08:13:17;;;;;;;44.58;28.45;;;;;;;15.27;100.00;101884.19;6132919;23;20106;-82
2023/10/10 08:15:56;;;;;;;39.55;28.30;;;;;;;15.30;100.00;101883.31;6101778;23;20558;-80
2023/10/10 08:21:11;;;;;;;43.45;28.67;;;;;;;15.47;100.00;101888.41;6125959;23;20176;-83
2023/10/10 08:23:42;;;;;;;42.17;28.80;;;;;;;15.53;100.00;101894.69;6126457;23;20472;-79
2023/10/10 08:26:24;;;;;;;36.67;26.90;;;;;;;15.57;100.00;101879.97;6126590;23;20046;-79
2023/10/10 08:28:52;;;;;;;39.38;27.42;;;;;;;15.63;100.00;101872.03;6192420;23;20035;-78
2023/10/10 08:31:18;;;;;;;42.67;27.60;;;;;;;15.73;100.00;101873.53;6218688;23;20080;-80
2023/10/10 08:33:46;;;;;;;38.88;26.20;;;;;;;15.86;100.00;101873.41;6192482;23;20463;-82
2023/10/10 08:36:25;;;;;;;39.65;26.75;;;;;;;15.93;100.00;101873.84;6192335;23;20520;-83
2023/10/10 08:38:56;;;;;;;38.65;27.65;;;;;;;16.01;100.00;101874.25;6192446;23;20017;-83
2023/10/10 08:41:31;;;;;;;38.55;27.33;;;;;;;16.12;100.00;101865.75;6191327;23;20431;-83
2023/10/10 08:43:58;;;;;;;35.50;26.20;;;;;;;16.15;100.00;101867.53;6219586;23;20036;-82
2023/10/10 08:46:29;;;;;;;37.58;27.15;;;;;;;16.16;100.00;101863.66;6192066;23;20017;-77
2023/10/10 08:49:03;;;;;;;33.88;25.02;;;;;;;16.19;100.00;101871.56;6219624;23;20051;-79
2023/10/10 08:51:34;;;;;;;42.85;25.85;;;;;;;16.23;100.00;101866.78;6218815;23;20017;-87
2023/10/10 08:54:10;;;;;;;37.77;26.67;;;;;;;16.36;100.00;101871.22;6219471;23;20040;-86
2023/10/10 08:56:59;;;;;;;46.70;24.80;;;;;;;16.47;100.00;101874.16;6191402;23;20064;-85
2023/10/10 08:59:29;;;;;;;33.47;24.55;;;;;;;16.54;100.00;101873.84;6218771;23;20104;-85
2023/10/10 09:02:07;;;;;;;35.60;24.50;;;;;;;16.64;100.00;101878.03;6219591;23;20478;-86
2023/10/10 09:04:34;;;;;;;32.20;23.60;;;;;;;16.64;100.00;101883.41;6192346;23;20099;-86
2023/10/10 09:07:08;;;;;;;34.28;24.25;;;;;;;16.69;100.00;101880.09;6219560;23;20068;-84
2023/10/10 09:09:39;;;;;;;31.23;23.75;;;;;;;16.86;100.00;101878.53;6219031;23;20013;-77
2023/10/10 09:12:16;;;;;;;31.15;23.33;;;;;;;17.06;100.00;101878.00;6192065;23;20017;-79
2023/10/10 09:14:50;;;;;;;31.08;22.45;;;;;;;17.17;100.00;101877.50;6192350;23;20031;-75
2023/10/10 09:17:29;;;;;;;32.63;22.67;;;;;;;17.29;99.25;101868.44;6219113;23;20013;-79
2023/10/10 09:20:00;;;;;;;35.35;22.88;;;;;;;17.32;98.69;101870.94;6219200;23;20021;-77
2023/10/10 09:22:43;;;;;;;32.35;22.50;;;;;;;17.47;97.59;101878.34;6218625;23;20470;-77
2023/10/10 09:25:31;;;;;;;31.13;22.40;;;;;;;17.57;98.08;101877.81;6218436;23;20039;-75
2023/10/10 09:27:59;;;;;;;30.58;21.80;;;;;;;17.66;96.09;101877.00;6219440;23;20072;-75
2023/10/10 09:30:33;;;;;;;29.48;20.92;;;;;;;17.66;94.64;101869.66;6218655;23;20100;-77
2023/10/10 09:33:45;;;;;;;31.13;21.73;;;;;;;17.70;94.41;101872.19;6219161;23;20017;-75
2023/10/10 09:35:58;;;;;;;28.50;19.95;;;;;;;17.82;93.10;101873.88;6207056;23;20023;-75
2023/10/10 09:38:35;;;;;;;28.52;19.98;;;;;;;17.83;91.77;101869.25;6218653;23;20435;-74
2023/10/10 09:41:14;;;;;;;31.00;19.20;;;;;;;17.94;92.43;101872.16;6218701;23;20028;-75
2023/10/10 09:44:01;;;;;;;29.35;20.08;;;;;;;18.12;91.94;101871.22;6219086;23;20013;-81
2023/10/10 09:46:53;;;;;;;29.00;19.83;;;;;;;18.23;90.99;101872.16;6218537;23;20021;-77
2023/10/10 09:58:15;;;;;;;30.75;18.17;;;;;;;18.37;89.13;101861.81;6126602;23;20057;-80
2023/10/10 10:06:27;;;;;;;29.15;18.05;;;;;;;18.33;88.62;101867.41;6126116;23;20022;-80
2023/10/10 10:09:38;;;;;;;25.73;18.40;;;;;;;18.41;89.56;101860.41;6125139;23;20436;-78
2023/10/10 10:12:10;;;;;;;27.95;17.70;;;;;;;18.56;89.18;101860.41;6126095;23;20082;-78
2023/10/10 10:15:12;;;;;;;29.90;18.25;;;;;;;18.69;88.64;101860.88;6126225;23;20058;-76
2023/10/10 10:17:56;;;;;;;23.67;17.38;;;;;;;18.82;87.99;101861.28;6125811;23;20400;-75
2023/10/10 10:20:49;;;;;;;23.27;17.23;;;;;;;18.85;87.04;101871.13;6125066;23;20406;-76
2023/10/10 10:23:27;;;;;;;20.85;17.17;;;;;;;18.91;86.81;101866.56;6125317;23;20014;-73
2023/10/10 10:26:04;;;;;;;24.10;17.13;;;;;;;18.95;84.56;101861.72;6161424;23;20447;-73
2023/10/10 10:28:35;;;;;;;23.75;16.40;;;;;;;18.91;85.34;101863.88;6218282;23;20013;-73
2023/10/10 10:31:04;;;;;;;24.38;15.90;;;;;;;18.97;86.24;101866.63;6218662;23;20470;-73
2023/10/10 10:33:34;;;;;;;32.15;15.48;;;;;;;19.04;86.61;101862.81;6218320;23;20019;-74
2023/10/10 10:36:14;;;;;;;27.15;15.73;;;;;;;19.07;86.54;101861.88;6218641;23;20652;-74
2023/10/10 10:39:18;;;;;;;21.60;15.77;;;;;;;19.13;87.07;101862.69;6191198;23;20431;-75
2023/10/10 10:41:43;;;;;;;20.80;14.80;;;;;;;19.20;85.79;101859.56;6217222;23;20052;-74
2023/10/10 10:44:12;;;;;;;20.38;14.93;;;;;;;19.23;84.56;101847.81;6217940;23;20013;-74
2023/10/10 10:46:41;;;;;;;24.38;14.73;;;;;;;19.26;84.35;101861.13;6219231;23;20125;-74
2023/10/10 10:49:07;;;;;;;22.60;14.85;;;;;;;19.28;83.00;101861.38;6192699;23;20017;-75
2023/10/10 10:51:43;;;;;;;22.65;15.48;;;;;;;19.32;82.21;101848.44;6218996;23;20023;-75
2023/10/10 10:54:35;;;;;;;21.52;14.25;;;;;;;19.40;81.85;101862.25;6219653;23;20024;-76
2023/10/10 10:57:02;;;;;;;22.58;15.02;;;;;;;19.43;81.94;101855.91;6219373;23;20017;-75
2023/10/10 10:59:36;;;;;;;22.98;14.57;;;;;;;19.45;81.93;101850.78;6192155;23;20028;-75
2023/10/10 11:02:14;;;;;;;20.67;13.68;;;;;;;19.52;82.87;101846.97;6219941;23;20021;-75
2023/10/10 11:04:47;;;;;;;21.90;13.90;;;;;;;19.59;83.85;101846.56;6219598;23;20041;-75
2023/10/10 11:07:26;;;;;;;18.10;14.13;;;;;;;19.59;83.00;101843.84;6218789;23;20521;-75
2023/10/10 11:09:54;;;;;;;22.77;14.43;;;;;;;19.65;82.46;101841.91;6219339;23;20052;-75
2023/10/10 11:12:31;;;;;;;18.73;13.80;;;;;;;19.70;82.09;101846.66;6218991;23;20411;-75
2023/10/10 11:15:04;;;;;;;20.73;13.25;;;;;;;19.76;82.70;101833.94;6219316;23;20076;-76
2023/10/10 11:17:37;;;;;;;18.30;14.70;;;;;;;19.77;80.73;101831.97;6218794;23;20074;-75
2023/10/10 11:20:26;;;;;;;21.17;13.82;;;;;;;19.82;82.11;101834.72;6219706;23;20443;-75
2023/10/10 11:22:55;;;;;;;20.77;13.90;;;;;;;19.86;81.04;101823.72;6219906;23;20017;-76
2023/10/10 11:25:41;;;;;;;21.48;14.65;;;;;;;19.90;80.31;101816.88;6218577;23;20017;-76
2023/10/10 11:28:21;;;;;;;22.42;14.50;;;;;;;20.03;80.56;101807.63;6219385;23;20466;-74
2023/10/10 11:30:53;;;;;;;23.77;14.93;;;;;;;20.15;79.85;101814.59;6193184;23;20418;-75
2023/10/10 11:33:48;;;;;;;;;;;;;;;20.25;81.86;101813.22;6219470;23;20017;-75
2023/10/10 11:36:24;;;;;;;23.33;14.40;;;;;;;20.33;79.58;101818.94;6191603;23;19920;-75
2023/10/10 11:38:55;;;;;;;22.08;14.00;;;;;;;20.43;78.55;101809.41;6218378;23;20017;-75
2023/10/10 11:41:31;;;;;;;;;;;;;;;20.55;80.45;101813.66;6218014;23;20021;-74
2023/10/10 11:44:04;;;;;;;19.95;13.45;;;;;;;20.59;77.39;101811.47;6218430;23;19924;-75
2023/10/10 11:46:32;;;;;;;23.60;14.13;;;;;;;20.62;77.75;101808.56;6217576;23;20044;-75
2023/10/10 11:49:00;;;;;;;22.33;15.25;;;;;;;20.60;77.29;101810.25;6218254;23;20049;-74
2023/10/10 11:51:34;;;;;;;19.85;14.30;;;;;;;20.50;78.36;101807.00;6217552;23;20482;-75
2023/10/10 11:54:01;;;;;;;26.20;14.85;;;;;;;20.39;77.55;101804.25;6219638;23;20497;-75
2023/10/10 11:56:34;;;;;;;24.23;15.52;;;;;;;20.28;78.25;101794.06;6218140;23;20447;-75
2023/10/10 11:59:14;;;;;;;21.20;15.77;;;;;;;20.20;79.00;101803.09;6219519;23;20017;-75
2023/10/10 12:01:47;;;;;;;20.05;14.82;;;;;;;20.11;79.29;101798.59;6219007;23;20637;-74
2023/10/10 12:04:32;;;;;;;25.58;16.75;;;;;;;20.07;79.75;101789.97;6218803;23;20044;-75
2023/10/10 12:07:00;;;;;;;20.67;15.15;;;;;;;20.13;81.00;101792.72;6219607;23;20084;-74
2023/10/10 12:09:32;;;;;;;22.45;15.15;;;;;;;20.18;80.33;101795.47;6193136;23;20052;-75
2023/10/10 12:12:01;;;;;;;22.48;14.77;;;;;;;20.25;80.47;101784.22;6219299;23;20328;-74
2023/10/10 12:14:32;;;;;;;22.08;14.93;;;;;;;20.30;79.50;101783.50;6218641;23;20447;-74
2023/10/10 12:17:05;;;;;;;21.35;15.40;;;;;;;20.36;78.32;101786.25;6219618;23;20350;-75
2023/10/10 12:19:36;;;;;;;22.45;14.63;;;;;;;20.42;78.32;101776.22;6218567;23;20024;-75
2023/10/10 12:22:17;;;;;;;27.85;14.10;;;;;;;20.47;78.70;101769.38;6219609;23;20444;-75
2023/10/10 12:24:43;;;;;;;25.45;15.80;;;;;;;20.48;77.39;101768.88;6192404;23;20021;-75
2023/10/10 12:27:10;;;;;;;21.80;14.73;;;;;;;20.51;77.30;101762.50;6191955;23;20028;-75
2023/10/10 12:29:40;;;;;;;19.08;13.82;;;;;;;20.52;76.79;101764.00;6219106;23;20020;-74
2023/10/10 12:32:15;;;;;;;20.75;14.57;;;;;;;20.55;77.57;101756.88;6167697;23;20113;-75
2023/10/10 12:34:43;;;;;;;29.42;13.70;;;;;;;20.57;77.84;101760.56;6191803;23;20021;-75
2023/10/10 12:37:09;;;;;;;26.60;14.85;;;;;;;20.57;76.77;101760.56;6218986;23;20052;-74
2023/10/10 12:39:37;;;;;;;21.38;15.50;;;;;;;20.60;75.59;101756.91;6218995;23;20051;-75
2023/10/10 12:42:04;;;;;;;22.40;14.50;;;;;;;20.62;76.16;101754.44;6219136;23;20100;-75
2023/10/10 12:44:31;;;;;;;21.65;13.80;;;;;;;20.69;75.42;101757.94;6218535;23;20021;-75
2023/10/10 12:46:59;;;;;;;21.23;14.00;;;;;;;20.73;74.98;101759.19;6219242;23;20020;-75
2023/10/10 12:49:29;;;;;;;21.95;13.60;;;;;;;20.81;74.25;101756.72;6218072;23;20083;-75
2023/10/10 12:52:00;;;;;;;20.15;14.45;;;;;;;20.84;75.36;101742.97;6219482;23;20432;-76
2023/10/10 12:54:34;;;;;;;19.63;13.02;;;;;;;20.87;75.67;101750.13;6218645;23;20088;-75
2023/10/10 12:57:05;;;;;;;20.25;13.90;;;;;;;20.89;74.72;101747.66;6219223;23;20068;-75
2023/10/10 12:59:33;;;;;;;20.00;13.18;;;;;;;20.91;74.38;101749.88;6218775;23;20017;-75
2023/10/10 13:02:03;;;;;;;23.90;12.75;;;;;;;21.00;74.26;101752.38;6218444;23;20525;-75
2023/10/10 13:04:33;;;;;;;16.30;11.93;;;;;;;21.05;72.20;101746.25;6191462;23;20028;-77
2023/10/10 13:07:02;;;;;;;25.10;13.02;;;;;;;21.07;72.17;101746.50;6192073;23;20072;-75
2023/10/10 13:09:31;;;;;;;17.00;12.60;;;;;;;21.09;72.70;101754.88;6191451;23;20021;-76
2023/10/10 13:12:00;;;;;;;21.73;12.05;;;;;;;21.20;73.60;101748.72;6192614;23;20017;-76
2023/10/10 13:14:32;;;;;;;19.02;12.73;;;;;;;21.29;71.83;101751.97;6218267;23;20017;-76
2023/10/10 13:19:47;;;;;;;17.23;11.55;;;;;;;21.47;71.74;101739.94;6219358;23;20017;-76
2023/10/10 13:22:20;;;;;;;18.05;12.68;;;;;;;21.57;70.87;101737.75;6218953;23;20025;-75
2023/10/10 13:24:48;;;;;;;18.08;12.23;;;;;;;21.58;70.38;101742.66;6192419;23;20017;-76
2023/10/10 13:27:16;;;;;;;19.23;12.32;;;;;;;21.62;68.04;101739.69;6191634;23;20021;-76
2023/10/10 13:29:45;;;;;;;17.83;10.85;;;;;;;21.71;69.95;101744.13;6219243;23;20017;-76
2023/10/10 13:32:12;;;;;;;23.48;11.50;;;;;;;21.78;69.57;101741.66;6218122;23;20064;-75
2023/10/10 13:34:39;;;;;;;17.42;12.10;;;;;;;21.82;68.76;101744.88;6218661;23;20448;-75
2023/10/10 13:37:07;;;;;;;23.67;12.38;;;;;;;21.80;68.94;101741.19;6218604;23;20020;-75
2023/10/10 13:39:43;;;;;;;17.02;11.73;;;;;;;21.71;68.61;101738.72;6218629;23;20013;-75
2023/10/10 13:42:14;;;;;;;18.23;11.65;;;;;;;21.55;68.21;101738.22;6218428;23;20029;-76
2023/10/10 13:44:41;;;;;;;21.60;11.68;;;;;;;21.44;68.46;101735.50;6191972;23;20439;-75
2023/10/10 13:47:08;;;;;;;22.35;10.98;;;;;;;21.36;68.61;101737.22;6217542;23;20023;-75
2023/10/10 13:49:44;;;;;;;13.13;10.05;;;;;;;21.29;69.15;101738.44;6191385;23;20032;-75
2023/10/10 13:52:11;;;;;;;14.07;9.77;;;;;;;21.24;70.13;101743.84;6218480;23;20490;-75
2023/10/10 13:54:38;;;;;;;15.20;9.95;;;;;;;21.19;70.22;101737.16;6218415;23;20451;-75
2023/10/10 13:57:07;;;;;;;19.73;9.57;;;;;;;21.17;70.80;101738.91;6191872;23;20035;-74
2023/10/10 13:59:33;;;;;;;10.60;8.80;;;;;;;21.18;70.91;101743.81;6218191;23;20048;-78
2023/10/10 14:02:03;;;;;;;13.82;8.70;;;;;;;21.15;71.16;101741.34;6190987;23;20048;-78
2023/10/10 14:04:45;;;;;;;14.55;9.75;;;;;;;21.12;72.53;101736.91;6191729;23;20024;-78
2023/10/10 14:07:14;;;;;;;18.02;9.10;;;;;;;21.14;71.17;101742.56;6218186;23;20076;-78
2023/10/10 14:09:41;;;;;;;16.83;10.15;;;;;;;21.16;71.00;101743.56;6191039;23;20478;-78
2023/10/10 14:12:31;;;;;;;19.77;10.88;;;;;;;21.21;71.60;101736.69;6217789;23;20494;-78
2023/10/10 14:14:58;;;;;;;15.40;10.37;;;;;;;21.21;71.70;101721.19;6217648;23;20053;-78
2023/10/10 14:17:24;;;;;;;19.85;11.07;;;;;;;21.24;71.28;101716.75;6165845;23;20477;-80
2023/10/10 14:19:52;;;;;;;17.00;10.40;;;;;;;21.17;71.69;101714.53;6217766;23;20466;-75
2023/10/10 14:22:22;;;;;;;15.70;10.60;;;;;;;21.18;72.41;101716.75;6217942;23;20048;-76
2023/10/10 14:24:52;;;;;;;24.90;11.13;;;;;;;21.16;71.87;101723.88;6218220;23;20017;-75
2023/10/10 14:27:20;;;;;;;21.25;10.43;;;;;;;21.16;71.42;101715.75;6191138;23;20088;-76